createdAt,value
2024-04-05T00:00:18.785Z,28.40
2024-04-05T00:01:21.588Z,26.27
2024-04-05T00:02:24.138Z,27.70
2024-04-05T00:03:26.282Z,26.30
2024-04-05T00:04:28.542Z,28.20
2024-04-05T00:05:30.888Z,27.80
2024-04-05T00:06:33.317Z,29.20
2024-04-05T00:07:35.828Z,27.30
2024-04-05T00:08:38.037Z,26.80
2024-04-05T00:09:40.295Z,27.80
2024-04-05T00:10:42.897Z,27.90
2024-04-05T00:11:45.106Z,27.80
2024-04-05T00:12:58.401Z,27.50
2024-04-05T00:13:52.146Z,27.80
2024-04-05T00:14:54.405Z,27.30
2024-04-05T00:15:56.859Z,27.50
2024-04-05T00:16:59.119Z,26.10
2024-04-05T00:18:01.461Z,26.67
2024-04-05T00:19:03.481Z,28.60
2024-04-05T00:20:06.932Z,27.90
2024-04-05T00:21:09.503Z,24.27
2024-04-05T00:22:11.884Z,29.30
2024-04-05T00:23:14.901Z,25.70
2024-04-05T00:24:17.231Z,27.00
2024-04-05T00:25:21.363Z,28.50
2024-04-05T00:26:23.670Z,6.40
2024-04-05T00:27:25.897Z,29.00
2024-04-05T00:28:28.252Z,2.20
2024-04-05T00:29:30.367Z,30.20
2024-04-05T00:30:33.014Z,29.30
2024-04-05T00:31:35.345Z,31.00
2024-04-05T00:32:37.793Z,30.80
2024-04-05T00:33:40.094Z,30.80
2024-04-05T00:34:42.392Z,29.40
2024-04-05T00:35:53.503Z,29.70
2024-04-05T00:36:55.834Z,29.70
2024-04-05T00:37:58.052Z,29.70
2024-04-05T00:39:00.519Z,29.50
2024-04-05T00:40:03.049Z,29.60
2024-04-05T00:41:05.301Z,28.90
2024-04-05T00:42:07.602Z,29.40
2024-04-05T00:43:09.818Z,28.60
2024-04-05T00:44:12.376Z,29.60
2024-04-05T00:45:14.855Z,31.10
2024-04-05T00:46:16.995Z,29.10
2024-04-05T00:47:19.579Z,29.20
2024-04-05T00:48:22.854Z,28.60
2024-04-05T00:49:26.156Z,29.50
2024-04-05T00:50:29.785Z,29.45
2024-04-05T00:51:32.138Z,28.00
2024-04-05T00:52:34.971Z,28.50
2024-04-05T00:53:37.178Z,27.60
2024-04-05T00:54:39.887Z,27.00
2024-04-05T00:55:43.374Z,26.60
2024-04-05T00:56:46.709Z,30.70
2024-04-05T00:57:49.745Z,29.90
2024-04-05T00:58:52.523Z,30.09
2024-04-05T00:59:54.948Z,30.55
2024-04-05T01:00:57.710Z,30.30
2024-04-05T01:02:00.130Z,30.10
2024-04-05T01:03:03.049Z,31.00
2024-04-05T01:04:05.932Z,30.27
2024-04-05T01:05:08.346Z,30.60
2024-04-05T01:06:10.953Z,30.00
2024-04-05T01:07:13.305Z,30.80
2024-04-05T01:08:16.178Z,29.70
2024-04-05T01:09:19.754Z,30.64
2024-04-05T01:10:22.227Z,30.20
2024-04-05T01:11:24.604Z,30.00
2024-04-05T01:12:26.969Z,29.60
2024-04-05T01:13:29.195Z,29.60
2024-04-05T01:14:31.479Z,30.30
2024-04-05T01:15:34.667Z,25.56
2024-04-05T01:16:37.105Z,28.50
2024-04-05T01:17:39.599Z,30.30
2024-04-05T01:18:43.375Z,29.50
2024-04-05T01:19:46.470Z,30.30
2024-04-05T01:20:50.808Z,29.90
2024-04-05T01:21:53.873Z,30.60
2024-04-05T01:23:01.486Z,30.20
2024-04-05T01:24:04.213Z,30.60
2024-04-05T01:25:07.094Z,30.55
2024-04-05T01:26:09.977Z,30.45
2024-04-05T01:27:12.370Z,22.82
2024-04-05T01:28:15.530Z,27.60
2024-04-05T01:29:17.738Z,29.36
2024-04-05T01:30:20.246Z,27.00
2024-04-05T01:31:22.434Z,1.80
2024-04-05T01:32:24.713Z,27.40
2024-04-05T01:33:26.909Z,25.56
2024-04-05T01:34:29.375Z,27.10
2024-04-05T01:35:31.768Z,29.60
2024-04-05T01:36:34.259Z,31.80
2024-04-05T01:37:36.516Z,34.60
2024-04-05T01:38:38.734Z,34.70
2024-04-05T01:39:40.903Z,32.40
2024-04-05T01:40:43.133Z,32.20
2024-04-05T01:41:45.611Z,30.50
2024-04-05T01:42:47.852Z,29.40
2024-04-05T01:43:50.082Z,26.20
2024-04-05T01:44:52.442Z,26.50
2024-04-05T01:45:54.711Z,26.90
2024-04-05T01:46:57.214Z,25.80
2024-04-05T01:47:59.571Z,25.30
2024-04-05T01:49:01.896Z,25.20
2024-04-05T01:50:05.080Z,26.00
2024-04-05T01:51:07.379Z,25.70
2024-04-05T01:52:10.358Z,25.80
2024-04-05T01:53:12.586Z,27.40
2024-04-05T01:54:14.968Z,26.80
2024-04-05T01:55:17.599Z,26.60
2024-04-05T01:56:19.925Z,25.70
2024-04-05T01:57:22.243Z,25.11
2024-04-05T01:58:24.445Z,23.40
2024-04-05T01:59:26.948Z,24.90
2024-04-05T02:00:29.338Z,26.00
2024-04-05T02:01:34.431Z,26.00
2024-04-05T02:02:36.847Z,26.10
2024-04-05T02:03:39.186Z,26.50
2024-04-05T02:04:41.801Z,25.30
2024-04-05T02:05:44.087Z,25.80
2024-04-05T02:06:46.290Z,25.40
2024-04-05T02:07:48.805Z,24.50
2024-04-05T02:08:51.141Z,22.50
2024-04-05T02:09:53.473Z,25.00
2024-04-05T02:10:56.004Z,24.60
2024-04-05T02:11:58.983Z,25.10
2024-04-05T02:13:01.363Z,24.60
2024-04-05T02:14:03.860Z,24.90
2024-04-05T02:15:06.719Z,25.60
2024-04-05T02:16:09.384Z,25.50
2024-04-05T02:17:11.865Z,25.20
2024-04-05T02:18:14.081Z,2.00
2024-04-05T02:19:16.367Z,25.10
2024-04-05T02:20:18.621Z,25.70
2024-04-05T02:21:21.042Z,24.80
2024-04-05T02:22:23.161Z,24.90
2024-04-05T02:23:25.620Z,25.70
2024-04-05T02:24:28.145Z,25.10
2024-04-05T02:25:32.300Z,26.30
2024-04-05T02:26:34.708Z,25.20
2024-04-05T02:27:36.982Z,25.50
2024-04-05T02:28:39.401Z,25.70
2024-04-05T02:29:41.832Z,24.80
2024-04-05T02:30:44.509Z,21.40
2024-04-05T02:31:46.765Z,25.40
2024-04-05T02:32:49.195Z,24.80
2024-04-05T02:33:51.464Z,27.10
2024-04-05T02:34:53.624Z,26.70
2024-04-05T02:35:59.756Z,27.00
2024-04-05T02:37:02.283Z,27.20
2024-04-05T02:38:04.910Z,26.30
2024-04-05T02:39:07.046Z,26.50
2024-04-05T02:40:10.488Z,25.73
2024-04-05T02:41:12.831Z,28.64
2024-04-05T02:42:15.135Z,27.60
2024-04-05T02:43:17.418Z,27.00
2024-04-05T02:44:19.736Z,27.00
2024-04-05T02:45:22.031Z,25.90
2024-04-05T02:46:24.815Z,26.60
2024-04-05T02:47:27.130Z,24.40
2024-04-05T02:48:29.591Z,27.40
2024-04-05T02:49:31.771Z,26.10
2024-04-05T02:50:34.216Z,26.60
2024-04-05T02:51:36.749Z,26.70
2024-04-05T02:52:39.019Z,25.00
2024-04-05T02:53:41.361Z,28.10
2024-04-05T02:54:43.762Z,27.70
2024-04-05T02:55:45.994Z,7.80
2024-04-05T02:56:48.425Z,23.40
2024-04-05T02:57:50.822Z,27.60
2024-04-05T02:58:53.012Z,27.30
2024-04-05T02:59:55.368Z,26.70
2024-04-05T03:00:57.622Z,28.10
2024-04-05T03:01:59.854Z,28.80
2024-04-05T03:03:02.008Z,29.10
2024-04-05T03:04:04.512Z,30.80
2024-04-05T03:05:07.390Z,31.80
2024-04-05T03:06:09.709Z,32.30
2024-04-05T03:07:11.944Z,32.50
2024-04-05T03:08:14.327Z,35.20
2024-04-05T03:09:16.426Z,33.00
2024-04-05T03:10:18.786Z,33.10
2024-04-05T03:11:21.046Z,32.30
2024-04-05T03:12:23.469Z,33.60
2024-04-05T03:13:27.069Z,35.00
2024-04-05T03:14:29.533Z,38.40
2024-04-05T03:15:31.986Z,44.50
2024-04-05T03:16:34.194Z,38.10
2024-04-05T03:17:36.652Z,33.20
2024-04-05T03:18:39.078Z,35.30
2024-04-05T03:19:41.403Z,35.30
2024-04-05T03:20:43.509Z,34.56
2024-04-05T03:21:45.969Z,34.90
2024-04-05T03:22:48.162Z,32.00
2024-04-05T03:23:50.633Z,31.70
2024-04-05T03:24:52.991Z,31.50
2024-04-05T03:25:55.186Z,31.80
2024-04-05T03:26:57.670Z,32.00
2024-04-05T03:27:59.814Z,30.60
2024-04-05T03:29:02.184Z,31.00
2024-04-05T03:30:07.711Z,31.80
2024-04-05T03:31:09.368Z,30.80
2024-04-05T03:32:11.625Z,31.00
2024-04-05T03:33:13.934Z,30.70
2024-04-05T03:34:16.294Z,30.00
2024-04-05T03:35:18.657Z,28.90
2024-04-05T03:36:21.045Z,32.30
2024-04-05T03:37:23.336Z,31.70
2024-04-05T03:38:25.433Z,32.10
2024-04-05T03:39:27.868Z,31.20
2024-04-05T03:40:30.156Z,30.90
2024-04-05T03:41:32.379Z,29.60
2024-04-05T03:42:34.927Z,37.50
2024-04-05T03:43:38.957Z,38.70
2024-04-05T03:44:41.451Z,36.50
2024-04-05T03:45:43.569Z,36.11
2024-04-05T03:46:46.004Z,35.80
2024-04-05T03:47:48.125Z,36.70
2024-04-05T03:48:50.493Z,31.22
2024-04-05T03:49:52.709Z,34.50
2024-04-05T03:50:54.971Z,33.22
2024-04-05T03:51:57.295Z,34.00
2024-04-05T03:52:59.695Z,33.40
2024-04-05T03:54:01.957Z,33.00
2024-04-05T03:55:04.874Z,32.90
2024-04-05T03:56:08.020Z,20.30
2024-04-05T03:57:10.271Z,34.30
2024-04-05T03:58:12.368Z,34.00
2024-04-05T03:59:15.557Z,35.78
2024-04-05T04:00:20.019Z,38.30
2024-04-05T04:01:22.423Z,39.50
2024-04-05T04:02:24.746Z,40.20
2024-04-05T04:03:27.043Z,48.50
2024-04-05T04:04:29.367Z,70.50
2024-04-05T04:05:31.531Z,115.67
2024-04-05T04:06:33.920Z,83.78
2024-04-05T04:07:36.058Z,70.78
2024-04-05T04:08:38.511Z,53.90
2024-04-05T04:09:40.708Z,44.22
2024-04-05T04:10:43.166Z,33.20
2024-04-05T04:11:45.596Z,40.70
2024-04-05T04:12:47.625Z,37.50
2024-04-05T04:13:49.910Z,38.00
2024-04-05T04:14:52.068Z,37.20
2024-04-05T04:15:54.432Z,35.40
2024-04-05T04:16:56.660Z,29.00
2024-04-05T04:18:01.489Z,32.30
2024-04-05T04:19:03.918Z,27.60
2024-04-05T04:20:07.617Z,31.60
2024-04-05T04:21:10.006Z,32.50
2024-04-05T04:22:12.341Z,34.50
2024-04-05T04:23:14.611Z,35.60
2024-04-05T04:24:17.015Z,34.70
2024-04-05T04:25:20.977Z,36.30
2024-04-05T04:26:23.285Z,37.56
2024-04-05T04:27:25.427Z,23.60
2024-04-05T04:28:27.700Z,35.78
2024-04-05T04:29:29.657Z,34.89
2024-04-05T04:30:32.126Z,34.89
2024-04-05T04:31:34.620Z,34.00
2024-04-05T04:32:36.852Z,35.70
2024-04-05T04:33:39.194Z,33.70
2024-04-05T04:34:42.149Z,30.50
2024-04-05T04:35:45.456Z,32.27
2024-04-05T04:36:47.860Z,32.90
2024-04-05T04:37:50.092Z,31.80
2024-04-05T04:38:52.557Z,32.70
2024-04-05T04:39:54.966Z,32.20
2024-04-05T04:40:57.369Z,32.10
2024-04-05T04:41:59.674Z,34.10
2024-04-05T04:43:01.940Z,31.40
2024-04-05T04:44:04.769Z,28.90
2024-04-05T04:45:07.958Z,28.50
2024-04-05T04:46:11.575Z,27.50
2024-04-05T04:47:14.060Z,26.20
2024-04-05T04:48:16.407Z,25.00
2024-04-05T04:49:19.236Z,26.27
2024-04-05T04:50:21.664Z,26.60
2024-04-05T04:51:24.444Z,25.60
2024-04-05T04:52:26.832Z,26.09
2024-04-05T04:53:28.993Z,27.60
2024-04-05T04:54:32.386Z,27.30
2024-04-05T04:55:37.276Z,26.00
2024-04-05T04:56:39.773Z,26.90
2024-04-05T04:57:45.748Z,25.20
2024-04-05T04:58:48.242Z,18.70
2024-04-05T04:59:51.813Z,22.70
2024-04-05T05:00:54.444Z,21.70
2024-04-05T05:01:56.821Z,22.30
2024-04-05T05:02:59.422Z,20.30
2024-04-05T05:04:04.144Z,17.40
2024-04-05T05:05:06.440Z,23.30
2024-04-05T05:06:08.943Z,20.30
2024-04-05T05:07:11.424Z,21.30
2024-04-05T05:08:13.986Z,22.20
2024-04-05T05:09:16.886Z,21.30
2024-04-05T05:10:19.457Z,18.60
2024-04-05T05:11:24.046Z,24.30
2024-04-05T05:12:26.598Z,24.70
2024-04-05T05:13:30.116Z,27.30
2024-04-05T05:14:32.530Z,26.20
2024-04-05T05:15:35.266Z,26.20
2024-04-05T05:16:37.761Z,24.36
2024-04-05T05:17:40.248Z,22.60
2024-04-05T05:18:42.740Z,21.70
2024-04-05T05:19:45.447Z,15.10
2024-04-05T05:20:48.854Z,9.90
2024-04-05T05:21:51.112Z,15.70
2024-04-05T05:22:56.992Z,15.10
2024-04-05T05:23:59.449Z,17.20
2024-04-05T05:25:02.200Z,15.60
2024-04-05T05:26:05.319Z,16.80
2024-04-05T05:27:07.872Z,17.30
2024-04-05T05:28:12.495Z,17.40
2024-04-05T05:29:14.805Z,17.90
2024-04-05T05:30:17.393Z,15.30
2024-04-05T05:31:19.930Z,20.90
2024-04-05T05:32:22.254Z,30.60
2024-04-05T05:33:24.512Z,27.80
2024-04-05T05:34:26.958Z,25.60
2024-04-05T05:35:29.349Z,22.30
2024-04-05T05:36:31.850Z,23.10
2024-04-05T05:37:34.525Z,36.30
2024-04-05T05:38:36.711Z,37.00
2024-04-05T05:39:39.316Z,33.10
2024-04-05T05:40:41.670Z,32.90
2024-04-05T05:41:44.093Z,47.40
2024-04-05T05:42:46.323Z,36.90
2024-04-05T05:43:49.953Z,37.10
2024-04-05T05:44:52.400Z,24.30
2024-04-05T05:45:54.603Z,25.90
2024-04-05T05:46:57.055Z,29.50
2024-04-05T05:47:59.323Z,27.20
2024-04-05T05:49:01.560Z,22.50
2024-04-05T05:50:04.572Z,17.20
2024-04-05T05:51:07.034Z,16.80
2024-04-05T05:52:09.412Z,14.10
2024-04-05T05:53:11.509Z,11.60
2024-04-05T05:54:13.911Z,13.30
2024-04-05T05:55:16.569Z,12.90
2024-04-05T05:56:18.836Z,11.00
2024-04-05T05:57:21.412Z,16.90
2024-04-05T05:58:23.874Z,12.90
2024-04-05T05:59:26.336Z,13.50
2024-04-05T06:00:29.156Z,24.64
2024-04-05T06:01:31.984Z,19.10
2024-04-05T06:02:38.598Z,27.30
2024-04-05T06:03:41.525Z,25.70
2024-04-05T06:04:43.845Z,20.82
2024-04-05T06:05:52.427Z,26.50
2024-04-05T06:06:55.793Z,18.00
2024-04-05T06:07:58.126Z,16.00
2024-04-05T06:09:00.601Z,24.00
2024-04-05T06:10:03.567Z,25.70
2024-04-05T06:11:06.372Z,27.30
2024-04-05T06:12:10.769Z,22.40
2024-04-05T06:13:13.222Z,14.70
2024-04-05T06:14:16.214Z,12.50
2024-04-05T06:15:18.651Z,20.20
2024-04-05T06:16:21.098Z,17.50
2024-04-05T06:17:24.155Z,19.80
2024-04-05T06:18:28.308Z,21.40
2024-04-05T06:19:44.324Z,14.90
2024-04-05T06:20:55.438Z,11.90
2024-04-05T06:21:57.814Z,8.40
2024-04-05T06:23:00.246Z,7.10
2024-04-05T06:24:02.945Z,7.90
2024-04-05T06:25:18.463Z,8.90
2024-04-05T06:26:20.899Z,11.20
2024-04-05T06:27:23.763Z,8.60
2024-04-05T06:28:26.854Z,7.40
2024-04-05T06:29:29.510Z,32.18
2024-04-05T06:30:31.729Z,29.30
2024-04-05T06:31:35.468Z,32.40
2024-04-05T06:32:37.843Z,31.60
2024-04-05T06:33:40.095Z,28.40
2024-04-05T06:34:42.971Z,17.60
2024-04-05T06:35:45.868Z,9.91
2024-04-05T06:36:48.259Z,15.64
2024-04-05T06:37:50.695Z,50.60
2024-04-05T06:38:53.124Z,32.30
2024-04-05T06:39:55.676Z,21.70
2024-04-05T06:41:01.024Z,22.00
2024-04-05T06:42:03.810Z,21.40
2024-04-05T06:43:08.409Z,12.70
2024-04-05T06:44:11.094Z,29.40
2024-04-05T06:45:13.497Z,34.80
2024-04-05T06:46:15.805Z,33.20
2024-04-05T06:47:18.271Z,56.90
2024-04-05T06:48:20.492Z,35.80
2024-04-05T06:49:22.843Z,38.10
2024-04-05T06:50:25.219Z,35.30
2024-04-05T06:51:27.386Z,29.50
2024-04-05T06:52:29.779Z,28.40
2024-04-05T06:53:32.012Z,27.50
2024-04-05T06:54:44.129Z,29.50
2024-04-05T06:55:49.791Z,23.70
2024-04-05T06:56:52.387Z,13.70
2024-04-05T06:57:54.588Z,9.60
2024-04-05T06:58:57.070Z,7.30
2024-04-05T06:59:59.296Z,8.40
2024-04-05T07:01:02.155Z,8.90
2024-04-05T07:02:17.616Z,24.20
2024-04-05T07:03:20.130Z,13.40
2024-04-05T07:04:22.364Z,9.40
2024-04-05T07:05:24.705Z,13.10
2024-04-05T07:06:26.958Z,19.40
2024-04-05T07:07:29.373Z,21.60
2024-04-05T07:08:31.758Z,16.90
2024-04-05T07:09:34.096Z,20.60
2024-04-05T07:10:48.146Z,19.60
2024-04-05T07:11:41.483Z,14.50
2024-04-05T07:12:43.948Z,12.20
2024-04-05T07:13:46.462Z,11.80
2024-04-05T07:14:48.984Z,14.90
2024-04-05T07:15:51.559Z,16.30
2024-04-05T07:16:53.796Z,11.60
2024-04-05T07:17:56.335Z,8.60
2024-04-05T07:18:58.728Z,10.10
2024-04-05T07:20:01.199Z,18.80
2024-04-05T07:21:04.272Z,18.73
2024-04-05T07:22:06.642Z,15.64
2024-04-05T07:23:09.036Z,16.00
2024-04-05T07:24:11.220Z,15.30
2024-04-05T07:25:14.037Z,10.90
2024-04-05T07:26:16.311Z,10.45
2024-04-05T07:27:18.760Z,15.20
2024-04-05T07:28:21.187Z,14.70
2024-04-05T07:29:23.591Z,19.80
2024-04-05T07:30:26.186Z,15.30
2024-04-05T07:31:29.402Z,10.20
2024-04-05T07:32:32.155Z,11.60
2024-04-05T07:33:34.469Z,9.20
2024-04-05T07:34:36.781Z,8.90
2024-04-05T07:35:39.301Z,9.40
2024-04-05T07:36:41.762Z,11.10
2024-04-05T07:37:50.503Z,7.80
2024-04-05T07:38:53.036Z,10.00
2024-04-05T07:39:55.914Z,13.30
2024-04-05T07:41:06.426Z,9.70
2024-04-05T07:42:08.783Z,10.70
2024-04-05T07:43:11.030Z,9.20
2024-04-05T07:44:14.285Z,8.80
2024-04-05T07:45:16.894Z,9.20
2024-04-05T07:46:19.302Z,10.20
2024-04-05T07:47:21.543Z,9.40
2024-04-05T07:48:24.095Z,12.10
2024-04-05T07:49:26.274Z,20.10
2024-04-05T07:50:28.626Z,12.00
2024-04-05T07:51:31.617Z,10.30
2024-04-05T07:52:34.060Z,10.80
2024-04-05T07:53:36.215Z,9.60
2024-04-05T07:54:42.193Z,10.70
2024-04-05T07:55:44.581Z,9.20
2024-04-05T07:56:48.215Z,7.70
2024-04-05T07:57:51.696Z,8.50
2024-04-05T07:58:54.112Z,8.40
2024-04-05T07:59:56.560Z,5.20
2024-04-05T08:00:59.133Z,8.80
2024-04-05T08:02:01.599Z,9.90
2024-04-05T08:03:04.395Z,13.60
2024-04-05T08:04:06.683Z,11.55
2024-04-05T08:05:09.101Z,13.10
2024-04-05T08:06:11.577Z,10.70
2024-04-05T08:07:14.058Z,7.00
2024-04-05T08:08:16.582Z,6.90
2024-04-05T08:09:18.965Z,6.80
2024-04-05T08:10:21.278Z,7.20
2024-04-05T08:11:23.578Z,9.50
2024-04-05T08:12:26.059Z,9.10
2024-04-05T08:13:28.646Z,6.80
2024-04-05T08:14:30.936Z,6.90
2024-04-05T08:15:33.653Z,6.20
2024-04-05T08:16:39.085Z,7.50
2024-04-05T08:17:41.522Z,7.70
2024-04-05T08:18:44.039Z,6.80
2024-04-05T08:19:46.572Z,5.80
2024-04-05T08:20:48.838Z,6.60
2024-04-05T08:21:51.145Z,7.50
2024-04-05T08:22:53.487Z,8.00
2024-04-05T08:23:56.011Z,7.90
2024-04-05T08:24:58.788Z,10.10
2024-04-05T08:26:01.496Z,7.00
2024-04-05T08:27:04.497Z,6.20
2024-04-05T08:28:06.809Z,5.20
2024-04-05T08:29:09.080Z,5.20
2024-04-05T08:30:12.108Z,7.20
2024-04-05T08:31:14.371Z,6.91
2024-04-05T08:32:16.725Z,5.90
2024-04-05T08:33:19.637Z,6.20
2024-04-05T08:34:22.516Z,6.09
2024-04-05T08:35:24.936Z,10.90
2024-04-05T08:36:27.535Z,16.60
2024-04-05T08:37:29.995Z,12.40
2024-04-05T08:38:32.274Z,19.20
2024-04-05T08:39:34.960Z,22.20
2024-04-05T08:40:39.903Z,20.60
2024-04-05T08:41:44.634Z,12.30
2024-04-05T08:42:48.842Z,27.50
2024-04-05T08:43:52.958Z,15.90
2024-04-05T08:44:55.954Z,8.00
2024-04-05T08:45:58.486Z,3.40
2024-04-05T08:47:02.215Z,10.30
2024-04-05T08:48:05.585Z,37.90
2024-04-05T08:49:08.698Z,52.27
2024-04-05T08:50:13.077Z,35.20
2024-04-05T08:51:16.147Z,28.90
2024-04-05T08:52:18.852Z,27.90
2024-04-05T08:53:21.395Z,28.27
2024-04-05T08:54:23.995Z,60.00
2024-04-05T08:55:28.332Z,38.10
2024-04-05T08:56:31.393Z,33.50
2024-04-05T08:57:38.742Z,31.60
2024-04-05T08:58:42.651Z,36.70
2024-04-05T08:59:49.774Z,32.60
2024-04-05T09:00:51.833Z,27.50
2024-04-05T09:02:07.233Z,14.90
2024-04-05T09:03:09.546Z,8.80
2024-04-05T09:04:13.444Z,8.40
2024-04-05T09:05:17.926Z,15.50
2024-04-05T09:06:20.578Z,8.40
2024-04-05T09:07:23.128Z,18.80
2024-04-05T09:08:25.594Z,31.70
2024-04-05T09:09:29.207Z,40.90
2024-04-05T09:10:33.407Z,30.70
2024-04-05T09:11:35.914Z,36.30
2024-04-05T09:12:49.600Z,33.10
2024-04-05T09:13:57.341Z,25.80
2024-04-05T09:14:59.930Z,28.00
2024-04-05T09:16:02.327Z,25.40
2024-04-05T09:17:15.818Z,21.90
2024-04-05T09:18:26.542Z,18.20
2024-04-05T09:19:28.880Z,9.90
2024-04-05T09:20:31.577Z,11.90
2024-04-05T09:21:34.621Z,8.90
2024-04-05T09:22:36.831Z,5.80
2024-04-05T09:23:48.443Z,4.60
2024-04-05T09:25:02.745Z,3.90
2024-04-05T09:26:05.318Z,10.60
2024-04-05T09:27:07.744Z,18.50
2024-04-05T09:28:12.571Z,6.10
2024-04-05T09:29:15.779Z,5.80
2024-04-05T09:30:18.425Z,9.70
2024-04-05T09:31:21.382Z,6.20
2024-04-05T09:32:23.608Z,5.30
2024-04-05T09:33:26.115Z,8.20
2024-04-05T09:34:30.156Z,17.70
2024-04-05T09:35:37.843Z,16.90
2024-04-05T09:36:40.517Z,11.10
2024-04-05T09:37:43.147Z,12.20
2024-04-05T09:38:46.118Z,12.00
2024-04-05T09:39:50.100Z,11.00
2024-04-05T09:40:52.951Z,17.60
2024-04-05T09:41:55.169Z,24.80
2024-04-05T09:42:58.887Z,40.30
2024-04-05T09:44:10.255Z,27.40
2024-04-05T09:45:08.823Z,20.40
2024-04-05T09:46:13.009Z,23.80
2024-04-05T09:47:18.006Z,9.50
2024-04-05T09:48:22.021Z,17.60
2024-04-05T09:49:25.615Z,17.30
2024-04-05T09:50:30.568Z,20.90
2024-04-05T09:51:42.723Z,24.00
2024-04-05T09:52:45.331Z,8.30
2024-04-05T09:53:50.855Z,4.60
2024-04-05T09:54:56.261Z,6.00
2024-04-05T09:56:00.659Z,11.80
2024-04-05T09:57:03.901Z,14.70
2024-04-05T09:58:06.726Z,7.80
2024-04-05T09:59:15.555Z,3.30
2024-04-05T10:00:21.750Z,4.80
2024-04-05T10:01:24.252Z,4.50
2024-04-05T10:02:29.190Z,10.00
2024-04-05T10:03:31.844Z,8.45
2024-04-05T10:04:37.301Z,9.00
2024-04-05T10:05:39.441Z,10.80
2024-04-05T10:06:42.534Z,9.30
2024-04-05T10:07:44.835Z,12.55
2024-04-05T10:08:47.354Z,7.60
2024-04-05T10:09:49.699Z,5.00
2024-04-05T10:10:54.156Z,6.90
2024-04-05T10:11:56.571Z,9.80
2024-04-05T10:13:11.227Z,38.70
2024-04-05T10:14:27.796Z,21.80
2024-04-05T10:15:30.831Z,7.70
2024-04-05T10:16:34.825Z,11.70
2024-04-05T10:17:38.043Z,27.70
2024-04-05T10:18:41.316Z,27.80
2024-04-05T10:19:44.811Z,29.80
2024-04-05T10:20:52.165Z,56.30
2024-04-05T10:22:04.872Z,55.40
2024-04-05T10:23:11.370Z,38.60
2024-04-05T10:24:14.630Z,18.50
2024-04-05T10:25:17.966Z,20.00
2024-04-05T10:26:21.314Z,47.27
2024-04-05T10:27:27.004Z,60.90
2024-04-05T10:28:30.180Z,29.70
2024-04-05T10:29:32.620Z,34.09
2024-04-05T10:30:35.620Z,33.80
2024-04-05T10:31:41.486Z,34.00
2024-04-05T10:32:48.711Z,28.50
2024-04-05T10:33:51.299Z,25.60
2024-04-05T10:34:57.321Z,21.80
2024-04-05T10:36:00.909Z,27.40
2024-04-05T10:37:06.833Z,22.20
2024-04-05T10:38:19.292Z,16.50
2024-04-05T10:39:14.373Z,26.50
2024-04-05T10:40:17.628Z,21.80
2024-04-05T10:41:20.114Z,8.90
2024-04-05T10:42:26.475Z,6.20
2024-04-05T10:43:31.202Z,5.70
2024-04-05T10:44:33.733Z,14.10
2024-04-05T10:45:36.895Z,13.70
2024-04-05T10:46:40.053Z,8.50
2024-04-05T10:47:53.198Z,8.60
2024-04-05T10:48:59.172Z,5.50
2024-04-05T10:50:04.178Z,4.70
2024-04-05T10:51:06.366Z,6.90
2024-04-05T10:52:09.032Z,12.10
2024-04-05T10:53:14.993Z,26.10
2024-04-05T10:54:17.308Z,24.50
2024-04-05T10:55:22.268Z,21.80
2024-04-05T10:56:24.839Z,16.20
2024-04-05T10:57:30.476Z,10.30
2024-04-05T10:58:35.531Z,18.70
2024-04-05T10:59:37.988Z,16.20
2024-04-05T11:00:41.397Z,12.80
2024-04-05T11:01:44.084Z,16.70
2024-04-05T11:02:46.551Z,10.10
2024-04-05T11:03:48.824Z,7.70
2024-04-05T11:04:51.111Z,13.70
2024-04-05T11:05:57.153Z,7.00
2024-04-05T11:07:00.365Z,7.60
2024-04-05T11:08:06.071Z,5.30
2024-04-05T11:09:09.529Z,6.20
2024-04-05T11:10:27.200Z,3.50
2024-04-05T11:11:24.133Z,7.30
2024-04-05T11:12:26.458Z,10.90
2024-04-05T11:13:28.725Z,9.20
2024-04-05T11:14:31.606Z,12.80
2024-04-05T11:15:34.092Z,11.64
2024-04-05T11:16:37.670Z,9.10
2024-04-05T11:17:40.306Z,7.00
2024-04-05T11:18:42.714Z,7.00
2024-04-05T11:19:45.278Z,6.90
2024-04-05T11:20:50.642Z,8.80
2024-04-05T11:22:04.549Z,6.90
2024-04-05T11:23:17.189Z,7.00
2024-04-05T11:24:21.551Z,8.30
2024-04-05T11:25:30.313Z,14.00
2024-04-05T11:26:37.251Z,3.70
2024-04-05T11:27:40.462Z,10.70
2024-04-05T11:28:45.199Z,9.70
2024-04-05T11:29:51.202Z,10.80
2024-04-05T11:30:55.027Z,10.70
2024-04-05T11:31:59.620Z,14.20
2024-04-05T11:33:03.541Z,15.00
2024-04-05T11:34:06.460Z,17.20
2024-04-05T11:35:10.341Z,12.80
2024-04-05T11:36:12.980Z,12.45
2024-04-05T11:37:15.403Z,16.30
2024-04-05T11:38:17.880Z,9.50
2024-04-05T11:39:20.221Z,7.50
2024-04-05T11:40:32.932Z,6.70
2024-04-05T11:41:27.621Z,8.80
2024-04-05T11:42:30.202Z,8.70
2024-04-05T11:43:33.594Z,14.70
2024-04-05T11:44:36.022Z,11.10
2024-04-05T11:45:38.387Z,8.00
2024-04-05T11:46:40.721Z,7.40
2024-04-05T11:47:44.453Z,5.40
2024-04-05T11:48:47.016Z,4.80
2024-04-05T11:49:52.234Z,3.90
2024-04-05T11:50:54.642Z,3.20
2024-04-05T11:51:57.036Z,5.50
2024-04-05T11:52:59.587Z,12.70
2024-04-05T11:54:02.112Z,8.90
2024-04-05T11:55:05.150Z,7.50
2024-04-05T11:56:08.003Z,6.30
2024-04-05T11:57:12.681Z,6.70
2024-04-05T11:58:14.990Z,7.10
2024-04-05T11:59:18.477Z,8.80
2024-04-05T12:00:20.989Z,9.30
2024-04-05T12:01:23.414Z,7.00
2024-04-05T12:02:25.786Z,4.80
2024-04-05T12:03:27.940Z,6.40
2024-04-05T12:04:30.261Z,8.20
2024-04-05T12:05:32.600Z,8.10
2024-04-05T12:06:35.218Z,5.70
2024-04-05T12:07:38.148Z,1.91
2024-04-05T12:08:40.351Z,3.30
2024-04-05T12:09:43.112Z,3.00
2024-04-05T12:10:45.413Z,4.18
2024-04-05T12:11:49.703Z,3.90
2024-04-05T12:12:52.017Z,5.90
2024-04-05T12:13:54.381Z,6.30
2024-04-05T12:14:57.904Z,4.40
2024-04-05T12:16:00.587Z,9.20
2024-04-05T12:17:03.544Z,12.90
2024-04-05T12:18:07.710Z,8.18
2024-04-05T12:19:09.918Z,6.40
2024-04-05T12:20:14.439Z,5.80
2024-04-05T12:21:17.161Z,1.55
2024-04-05T12:22:19.841Z,5.64
2024-04-05T12:23:22.036Z,4.20
2024-04-05T12:24:24.542Z,5.20
2024-04-05T12:25:28.629Z,7.40
2024-04-05T12:26:36.973Z,9.70
2024-04-05T12:27:35.422Z,9.30
2024-04-05T12:28:37.879Z,10.70
2024-04-05T12:29:40.108Z,9.60
2024-04-05T12:30:43.624Z,9.10
2024-04-05T12:31:46.088Z,7.90
2024-04-05T12:32:48.266Z,7.10
2024-04-05T12:33:50.700Z,6.60
2024-04-05T12:34:53.073Z,6.10
2024-04-05T12:35:56.851Z,6.70
2024-04-05T12:36:59.397Z,8.60
2024-04-05T12:38:01.599Z,8.20
2024-04-05T12:39:04.038Z,3.90
2024-04-05T12:40:08.343Z,2.60
2024-04-05T12:41:10.964Z,4.40
2024-04-05T12:42:13.352Z,4.20
2024-04-05T12:43:15.558Z,4.10
2024-04-05T12:44:20.937Z,2.70
2024-04-05T12:45:22.533Z,2.70
2024-04-05T12:46:25.065Z,13.70
2024-04-05T12:47:27.549Z,13.00
2024-04-05T12:48:29.782Z,10.70
2024-04-05T12:49:32.252Z,9.30
2024-04-05T12:50:34.519Z,8.20
2024-04-05T12:51:36.908Z,7.60
2024-04-05T12:52:39.246Z,9.40
2024-04-05T12:53:41.576Z,7.00
2024-04-05T12:54:43.872Z,5.00
2024-04-05T12:55:57.247Z,7.40
2024-04-05T12:57:02.759Z,12.60
2024-04-05T12:58:05.183Z,18.40
2024-04-05T12:59:08.250Z,13.90
2024-04-05T13:00:12.002Z,11.60
2024-04-05T13:01:14.523Z,9.60
2024-04-05T13:02:17.811Z,9.80
2024-04-05T13:03:21.047Z,4.90
2024-04-05T13:04:23.719Z,7.40
2024-04-05T13:05:26.071Z,8.10
2024-04-05T13:06:28.672Z,8.70
2024-04-05T13:07:30.974Z,13.50
2024-04-05T13:08:34.348Z,13.80
2024-04-05T13:09:36.992Z,18.90
2024-04-05T13:10:39.534Z,10.20
2024-04-05T13:11:42.074Z,7.80
2024-04-05T13:12:44.498Z,6.00
2024-04-05T13:13:47.629Z,17.80
2024-04-05T13:14:50.052Z,15.90
2024-04-05T13:15:54.250Z,15.30
2024-04-05T13:16:56.756Z,18.30
2024-04-05T13:17:59.248Z,20.20
2024-04-05T13:19:02.162Z,9.10
2024-04-05T13:20:05.752Z,15.80
2024-04-05T13:21:13.474Z,26.40
2024-04-05T13:22:16.044Z,28.30
2024-04-05T13:23:18.595Z,29.80
2024-04-05T13:24:20.991Z,28.90
2024-04-05T13:25:25.271Z,23.80
2024-04-05T13:26:27.806Z,7.60
2024-04-05T13:27:31.027Z,3.20
2024-04-05T13:28:34.082Z,11.40
2024-04-05T13:29:36.478Z,25.80
2024-04-05T13:30:39.032Z,31.00
2024-04-05T13:31:41.507Z,33.30
2024-04-05T13:32:43.984Z,31.10
2024-04-05T13:33:46.843Z,15.80
2024-04-05T13:34:51.308Z,10.45
2024-04-05T13:35:53.740Z,7.00
2024-04-05T13:36:56.144Z,4.90
2024-04-05T13:37:59.176Z,9.90
2024-04-05T13:39:01.820Z,8.90
2024-04-05T13:40:05.253Z,10.90
2024-04-05T13:41:08.361Z,13.90